createdAt,value
2023-04-16T00:01:40.918Z,23.30
2023-04-16T00:04:09.076Z,23.20
2023-04-16T00:06:37.043Z,23.20
2023-04-16T00:09:04.920Z,23.20
2023-04-16T00:11:33.136Z,23.20
2023-04-16T00:14:01.016Z,23.20
2023-04-16T00:16:28.875Z,23.20
2023-04-16T00:18:56.864Z,23.20
2023-04-16T00:21:24.831Z,23.10
2023-04-16T00:23:52.960Z,23.10
2023-04-16T00:26:20.848Z,23.10
2023-04-16T00:28:48.858Z,23.10
2023-04-16T00:31:17.168Z,23.00
2023-04-16T00:33:45.273Z,23.00
2023-04-16T00:36:13.033Z,23.10
2023-04-16T00:38:40.841Z,23.10
2023-04-16T00:41:08.963Z,23.10
2023-04-16T00:43:36.917Z,23.10
2023-04-16T00:46:05.858Z,23.10
2023-04-16T00:48:34.093Z,23.10
2023-04-16T00:51:02.973Z,23.10
2023-04-16T00:53:31.328Z,23.10
2023-04-16T00:56:01.082Z,23.10
2023-04-16T00:58:29.339Z,23.10
2023-04-16T01:00:57.298Z,23.10
2023-04-16T01:03:31.229Z,23.00
2023-04-16T01:05:59.279Z,23.00
2023-04-16T01:08:27.183Z,23.00
2023-04-16T01:10:55.059Z,22.90
2023-04-16T01:13:22.932Z,22.90
2023-04-16T01:15:50.959Z,22.90
2023-04-16T01:18:19.700Z,22.80
2023-04-16T01:20:48.269Z,22.80
2023-04-16T01:23:16.521Z,22.80
2023-04-16T01:25:44.681Z,22.80
2023-04-16T01:28:12.857Z,22.80
2023-04-16T01:30:40.552Z,22.70
2023-04-16T01:33:24.924Z,22.70
2023-04-16T01:35:53.008Z,22.70
2023-04-16T01:38:20.977Z,22.60
2023-04-16T01:40:49.016Z,22.60
2023-04-16T01:43:16.872Z,22.60
2023-04-16T01:45:44.721Z,22.60
2023-04-16T01:48:12.942Z,22.50
2023-04-16T01:50:40.813Z,22.80
2023-04-16T01:53:08.637Z,23.00
2023-04-16T01:55:36.598Z,23.20
2023-04-16T01:58:04.488Z,23.30
2023-04-16T02:00:35.163Z,23.20
2023-04-16T02:03:03.219Z,23.00
2023-04-16T02:05:31.306Z,22.80
2023-04-16T02:07:59.140Z,22.70
2023-04-16T02:10:26.964Z,23.00
2023-04-16T02:12:55.459Z,23.20
2023-04-16T02:15:23.257Z,23.30
2023-04-16T02:17:51.334Z,23.30
2023-04-16T02:20:19.279Z,23.10
2023-04-16T02:22:52.901Z,23.00
2023-04-16T02:25:23.425Z,22.80
2023-04-16T02:27:53.609Z,22.80
2023-04-16T02:30:47.935Z,23.00
2023-04-16T02:33:18.045Z,23.20
2023-04-16T02:35:55.847Z,23.40
2023-04-16T02:38:23.828Z,23.40
2023-04-16T02:40:51.609Z,23.20
2023-04-16T02:43:19.549Z,23.00
2023-04-16T02:45:47.372Z,22.90
2023-04-16T02:48:15.364Z,22.80
2023-04-16T02:50:43.217Z,23.00
2023-04-16T02:53:11.096Z,23.20
2023-04-16T02:55:39.071Z,23.40
2023-04-16T02:58:06.975Z,23.30
2023-04-16T03:00:34.851Z,23.20
2023-04-16T03:03:02.975Z,23.00
2023-04-16T03:05:31.373Z,22.90
2023-04-16T03:07:59.378Z,22.80
2023-04-16T03:10:27.143Z,22.80
2023-04-16T03:12:55.089Z,22.70
2023-04-16T03:15:22.887Z,22.70
2023-04-16T03:17:51.063Z,22.60
2023-04-16T03:20:18.798Z,22.60
2023-04-16T03:22:47.027Z,22.60
2023-04-16T03:25:15.281Z,22.50
2023-04-16T03:27:43.142Z,22.50
2023-04-16T03:30:12.759Z,22.40
2023-04-16T03:32:41.164Z,22.40
2023-04-16T03:35:09.540Z,22.30
2023-04-16T03:37:38.162Z,22.30
2023-04-16T03:40:06.316Z,22.30
2023-04-16T03:42:34.295Z,22.40
2023-04-16T03:45:03.307Z,22.60
2023-04-16T03:47:32.425Z,22.80
2023-04-16T03:50:03.252Z,23.00
2023-04-16T03:52:31.478Z,23.10
2023-04-16T03:54:59.290Z,22.90
2023-04-16T03:57:29.570Z,22.70
2023-04-16T04:00:02.969Z,22.60
2023-04-16T04:02:42.143Z,22.70
2023-04-16T04:05:17.405Z,23.00
2023-04-16T04:07:47.192Z,23.10
2023-04-16T04:10:15.644Z,23.10
2023-04-16T04:12:44.221Z,22.80
2023-04-16T04:15:13.153Z,22.70
2023-04-16T04:17:43.224Z,22.70
2023-04-16T04:20:11.652Z,22.80
2023-04-16T04:22:39.755Z,23.00
2023-04-16T04:25:09.047Z,23.20
2023-04-16T04:27:37.277Z,23.20
2023-04-16T04:30:05.638Z,22.90
2023-04-16T04:32:35.075Z,22.70
2023-04-16T04:35:03.576Z,22.70
2023-04-16T04:37:31.430Z,22.80
2023-04-16T04:39:59.298Z,23.00
2023-04-16T04:42:27.259Z,23.20
2023-04-16T04:44:56.083Z,23.20
2023-04-16T04:47:24.882Z,23.00
2023-04-16T04:49:54.757Z,22.80
2023-04-16T04:52:22.732Z,22.70
2023-04-16T04:54:51.754Z,22.70
2023-04-16T04:57:19.713Z,22.80
2023-04-16T04:59:47.695Z,23.00
2023-04-16T05:02:16.918Z,23.20
2023-04-16T05:04:44.945Z,23.30
2023-04-16T05:07:12.809Z,23.00
2023-04-16T05:09:40.634Z,22.70
2023-04-16T05:12:08.663Z,22.60
2023-04-16T05:14:36.412Z,22.70
2023-04-16T05:17:04.386Z,22.90
2023-04-16T05:19:32.267Z,23.00
2023-04-16T05:22:00.629Z,23.20
2023-04-16T05:24:28.346Z,23.20
2023-04-16T05:26:57.366Z,23.00
2023-04-16T05:29:25.295Z,22.80
2023-04-16T05:31:53.349Z,22.60
2023-04-16T05:34:21.183Z,22.60
2023-04-16T05:36:49.057Z,22.70
2023-04-16T05:39:17.391Z,22.90
2023-04-16T05:41:45.201Z,23.00
2023-04-16T05:44:13.023Z,23.20
2023-04-16T05:46:41.039Z,23.10
2023-04-16T05:49:09.236Z,22.90
2023-04-16T05:51:37.478Z,22.70
2023-04-16T05:54:05.450Z,22.60
2023-04-16T05:56:33.327Z,22.60
2023-04-16T05:59:01.174Z,22.80
2023-04-16T06:01:28.989Z,23.00
2023-04-16T06:03:57.143Z,23.20
2023-04-16T06:06:25.051Z,23.10
2023-04-16T06:08:52.928Z,22.90
2023-04-16T06:11:20.750Z,22.70
2023-04-16T06:13:48.788Z,22.60
2023-04-16T06:16:17.595Z,22.60
2023-04-16T06:18:45.435Z,22.50
2023-04-16T06:21:13.384Z,22.70
2023-04-16T06:23:41.212Z,22.90
2023-04-16T06:26:09.037Z,23.00
2023-04-16T06:28:36.896Z,23.20
2023-04-16T06:31:05.018Z,23.10
2023-04-16T06:33:33.091Z,22.80
2023-04-16T06:36:00.784Z,22.60
2023-04-16T06:38:28.734Z,22.50
2023-04-16T06:40:56.556Z,22.60
2023-04-16T06:43:24.525Z,22.80
2023-04-16T06:45:52.474Z,23.00
2023-04-16T06:48:20.321Z,23.10
2023-04-16T06:50:48.178Z,23.10
2023-04-16T06:53:16.033Z,22.80
2023-04-16T06:55:44.073Z,22.60
2023-04-16T06:58:11.814Z,22.70
2023-04-16T07:00:39.783Z,22.80
2023-04-16T07:03:07.955Z,23.00
2023-04-16T07:05:36.130Z,23.10
2023-04-16T07:08:03.882Z,23.00
2023-04-16T07:10:31.707Z,22.80
2023-04-16T07:12:59.691Z,22.70
2023-04-16T07:15:27.899Z,22.70
2023-04-16T07:17:56.020Z,22.80
2023-04-16T07:20:23.789Z,23.00
2023-04-16T07:22:51.866Z,23.10
2023-04-16T07:25:19.787Z,23.20
2023-04-16T07:27:47.684Z,22.90
2023-04-16T07:30:15.595Z,22.70
2023-04-16T07:32:43.463Z,22.60
2023-04-16T07:35:11.468Z,22.80
2023-04-16T07:37:39.393Z,22.90
2023-04-16T07:40:07.659Z,23.10
2023-04-16T07:42:35.856Z,23.10
2023-04-16T07:45:03.742Z,22.80
2023-04-16T07:47:31.701Z,22.60
2023-04-16T07:49:59.484Z,22.60
2023-04-16T07:52:27.453Z,22.80
2023-04-16T07:54:56.008Z,22.90
2023-04-16T07:57:23.903Z,23.10
2023-04-16T07:59:51.762Z,23.20
2023-04-16T08:02:20.239Z,22.90
2023-04-16T08:04:48.412Z,22.70
2023-04-16T08:07:16.527Z,22.60
2023-04-16T08:09:51.814Z,22.80
2023-04-16T08:12:19.709Z,23.00
2023-04-16T08:14:47.986Z,23.20
2023-04-16T08:17:16.196Z,23.10
2023-04-16T08:19:44.283Z,22.90
2023-04-16T08:22:13.016Z,22.70
2023-04-16T08:24:40.993Z,22.70
2023-04-16T08:27:18.394Z,22.80
2023-04-16T08:29:48.011Z,23.00
2023-04-16T08:32:15.936Z,23.10
2023-04-16T08:34:43.875Z,23.10
2023-04-16T08:37:11.758Z,22.90
2023-04-16T08:39:39.879Z,22.80
2023-04-16T08:42:12.581Z,22.60
2023-04-16T08:44:44.396Z,22.60
2023-04-16T08:47:13.078Z,22.50
2023-04-16T08:49:44.441Z,22.50
2023-04-16T08:52:15.953Z,22.40
2023-04-16T08:54:46.753Z,22.40
2023-04-16T08:57:27.456Z,22.40
2023-04-16T08:59:55.465Z,22.60
2023-04-16T09:02:23.769Z,22.80
2023-04-16T09:04:52.891Z,22.90
2023-04-16T09:07:21.351Z,22.90
2023-04-16T09:09:49.644Z,22.60
2023-04-16T09:12:17.941Z,22.50
2023-04-16T09:14:50.203Z,22.50
2023-04-16T09:17:19.056Z,22.60
2023-04-16T09:19:46.903Z,22.90
2023-04-16T09:22:15.050Z,23.00
2023-04-16T09:24:42.884Z,23.00
2023-04-16T09:27:12.393Z,22.70
2023-04-16T09:29:41.256Z,22.50
2023-04-16T09:32:10.239Z,22.60
2023-04-16T09:34:56.590Z,22.70
2023-04-16T09:37:25.164Z,22.90
2023-04-16T09:39:54.498Z,23.10
2023-04-16T09:42:23.760Z,22.90
2023-04-16T09:44:51.807Z,22.70
2023-04-16T09:47:19.832Z,22.60
2023-04-16T09:49:47.937Z,22.60
2023-04-16T09:52:19.413Z,22.80
2023-04-16T09:54:51.171Z,23.00
2023-04-16T09:57:20.156Z,23.10
2023-04-16T09:59:48.652Z,22.90
2023-04-16T10:02:17.699Z,22.60
2023-04-16T10:04:46.583Z,22.60
2023-04-16T10:07:14.629Z,22.80
2023-04-16T10:09:42.651Z,23.00
2023-04-16T10:12:10.879Z,23.10
2023-04-16T10:14:39.074Z,23.00
2023-04-16T10:17:07.411Z,22.80
2023-04-16T10:19:35.851Z,22.60
2023-04-16T10:22:04.214Z,22.50
2023-04-16T10:24:32.768Z,22.50
2023-04-16T10:27:01.092Z,22.50
2023-04-16T10:29:30.092Z,22.40
2023-04-16T10:31:58.248Z,22.40
2023-04-16T10:34:26.726Z,22.40
2023-04-16T10:36:54.958Z,22.30
2023-04-16T10:39:24.692Z,22.30
2023-04-16T10:42:06.825Z,22.30
2023-04-16T10:44:34.888Z,22.20
2023-04-16T10:47:02.620Z,22.20
2023-04-16T10:49:30.696Z,22.10
2023-04-16T10:52:00.152Z,22.20
2023-04-16T10:54:31.545Z,22.20
2023-04-16T10:57:01.707Z,22.20
2023-04-16T10:59:32.627Z,22.10
2023-04-16T11:02:01.063Z,22.10
2023-04-16T11:04:30.515Z,22.30
2023-04-16T11:07:01.637Z,22.40
2023-04-16T11:09:47.991Z,22.60
2023-04-16T11:12:17.446Z,22.70
2023-04-16T11:14:47.900Z,22.60
2023-04-16T11:17:15.999Z,22.40
2023-04-16T11:19:44.288Z,22.50
2023-04-16T11:22:14.027Z,22.70
2023-04-16T11:24:44.497Z,22.80
2023-04-16T11:27:15.878Z,22.90
2023-04-16T11:29:46.322Z,22.70
2023-04-16T11:32:21.525Z,22.50
2023-04-16T11:34:49.661Z,22.40
2023-04-16T11:37:20.710Z,22.60
2023-04-16T11:39:52.432Z,22.80
2023-04-16T11:42:21.656Z,23.00
2023-04-16T11:44:55.599Z,22.80
2023-04-16T11:47:26.663Z,22.60
2023-04-16T11:49:54.616Z,22.40
2023-04-16T11:52:32.561Z,22.60
2023-04-16T11:55:00.633Z,22.70
2023-04-16T11:57:29.391Z,23.00
2023-04-16T12:00:01.404Z,23.00
2023-04-16T12:02:40.405Z,22.70
2023-04-16T12:05:26.840Z,22.50
2023-04-16T12:07:55.045Z,22.50
2023-04-16T12:10:23.290Z,22.80
2023-04-16T12:12:51.486Z,23.10
2023-04-16T12:15:19.600Z,23.20
2023-04-16T12:17:47.806Z,23.10
2023-04-16T12:20:16.128Z,23.00
2023-04-16T12:22:48.176Z,22.80
2023-04-16T12:25:17.253Z,22.70
2023-04-16T12:27:55.489Z,22.50
2023-04-16T12:30:24.360Z,22.50
2023-04-16T12:32:54.044Z,22.40
2023-04-16T12:35:32.591Z,22.40
2023-04-16T12:38:01.148Z,22.40
2023-04-16T12:40:29.145Z,22.30
2023-04-16T12:42:57.110Z,22.40
2023-04-16T12:45:25.213Z,22.60
2023-04-16T12:47:53.270Z,22.80
2023-04-16T12:50:21.156Z,23.00
2023-04-16T12:52:49.364Z,22.80
2023-04-16T12:55:17.333Z,22.60
2023-04-16T12:57:45.501Z,22.60
2023-04-16T13:00:13.602Z,22.40
2023-04-16T13:02:41.751Z,22.40
2023-04-16T13:05:09.812Z,22.60
2023-04-16T13:07:37.817Z,22.80
2023-04-16T13:10:06.410Z,23.00
2023-04-16T13:12:34.274Z,22.90
2023-04-16T13:15:02.375Z,22.70
2023-04-16T13:17:30.404Z,22.50
2023-04-16T13:19:58.311Z,22.70
2023-04-16T13:22:26.397Z,22.90
2023-04-16T13:24:54.402Z,23.10
2023-04-16T13:27:22.500Z,23.10
2023-04-16T13:29:50.297Z,22.90
2023-04-16T13:32:18.365Z,22.70
2023-04-16T13:34:46.257Z,22.60
2023-04-16T13:37:14.628Z,22.60
2023-04-16T13:39:42.364Z,22.50
2023-04-16T13:42:10.305Z,22.50
2023-04-16T13:44:38.150Z,22.40
2023-04-16T13:47:06.314Z,22.40
2023-04-16T13:49:35.763Z,22.40
2023-04-16T13:52:04.312Z,22.40
2023-04-16T13:54:32.287Z,22.40
2023-04-16T13:57:00.220Z,22.30
2023-04-16T13:59:28.147Z,22.30
2023-04-16T14:01:56.555Z,22.30
2023-04-16T14:04:24.543Z,22.40
2023-04-16T14:06:52.613Z,22.40
2023-04-16T14:09:20.340Z,22.40
2023-04-16T14:11:48.324Z,22.30
2023-04-16T14:14:16.256Z,22.30
2023-04-16T14:16:44.581Z,22.30
2023-04-16T14:19:13.243Z,22.30
2023-04-16T14:21:41.409Z,22.20
2023-04-16T14:24:09.537Z,22.20
2023-04-16T14:26:37.469Z,22.20
2023-04-16T14:29:05.755Z,22.30
2023-04-16T14:31:33.653Z,22.20
2023-04-16T14:34:01.723Z,22.20
2023-04-16T14:36:30.609Z,22.20
2023-04-16T14:38:58.369Z,22.20
2023-04-16T14:41:26.381Z,22.20
2023-04-16T14:43:54.298Z,22.20
2023-04-16T14:46:22.361Z,22.20
2023-04-16T14:48:50.143Z,22.20
2023-04-16T14:51:18.213Z,22.20
2023-04-16T14:53:46.154Z,22.20
2023-04-16T14:56:14.445Z,22.20
2023-04-16T14:58:42.245Z,22.20
2023-04-16T15:01:10.253Z,22.20
2023-04-16T15:03:38.347Z,22.10
2023-04-16T15:06:06.360Z,22.20
2023-04-16T15:08:35.080Z,22.10
2023-04-16T15:11:02.989Z,22.20
2023-04-16T15:13:30.992Z,22.10
2023-04-16T15:15:58.998Z,22.10
2023-04-16T15:18:26.854Z,22.10
2023-04-16T15:20:55.129Z,22.10
2023-04-16T15:23:25.291Z,22.10
2023-04-16T15:25:53.337Z,22.10
2023-04-16T15:28:21.273Z,22.10
2023-04-16T15:30:49.341Z,22.10
2023-04-16T15:33:17.159Z,22.10
2023-04-16T15:35:45.105Z,22.10
2023-04-16T15:38:12.996Z,22.10
2023-04-16T15:40:43.929Z,22.10
2023-04-16T15:43:11.919Z,22.10
2023-04-16T15:45:39.724Z,22.10
2023-04-16T15:48:07.760Z,22.10
2023-04-16T15:50:35.738Z,22.10
2023-04-16T15:53:04.058Z,22.10
2023-04-16T15:55:31.854Z,22.10
2023-04-16T15:57:59.762Z,22.10
2023-04-16T16:00:27.881Z,22.20
2023-04-16T16:02:55.870Z,22.10
2023-04-16T16:05:23.882Z,22.10
2023-04-16T16:07:52.066Z,22.20
2023-04-16T16:10:20.088Z,22.20
2023-04-16T16:12:48.094Z,22.20
2023-04-16T16:15:15.978Z,22.20
2023-04-16T16:17:44.116Z,22.20
2023-04-16T16:20:12.156Z,22.20
2023-04-16T16:22:40.297Z,22.20
2023-04-16T16:25:08.320Z,22.20
2023-04-16T16:27:36.424Z,22.20
2023-04-16T16:30:04.685Z,22.20
2023-04-16T16:32:32.879Z,22.30
2023-04-16T16:35:00.778Z,22.30
2023-04-16T16:37:29.481Z,22.40
2023-04-16T16:39:57.476Z,22.40
2023-04-16T16:42:25.577Z,22.40
2023-04-16T16:44:54.792Z,22.30
2023-04-16T16:47:24.726Z,22.30
2023-04-16T16:49:52.582Z,22.30
2023-04-16T16:52:23.127Z,22.30
2023-04-16T16:54:51.331Z,22.30
2023-04-16T16:57:19.426Z,22.30
2023-04-16T16:59:47.517Z,22.30
2023-04-16T17:02:16.997Z,22.30
2023-04-16T17:04:45.215Z,22.30
2023-04-16T17:07:13.047Z,22.30
2023-04-16T17:09:41.037Z,22.30
2023-04-16T17:12:08.949Z,22.40
2023-04-16T17:14:36.920Z,22.40
2023-04-16T17:17:04.731Z,22.40
2023-04-16T17:19:32.855Z,22.40
2023-04-16T17:22:00.799Z,22.40
2023-04-16T17:24:28.858Z,22.40
2023-04-16T17:26:56.685Z,22.40
2023-04-16T17:29:24.620Z,22.40
2023-04-16T17:31:53.267Z,22.40
2023-04-16T17:34:21.829Z,22.50
2023-04-16T17:36:49.844Z,22.50
2023-04-16T17:39:17.637Z,22.50
2023-04-16T17:41:45.473Z,22.40
2023-04-16T17:44:13.717Z,22.40
2023-04-16T17:46:41.591Z,22.40
2023-04-16T17:49:09.620Z,22.40
2023-04-16T17:51:37.504Z,22.40
2023-04-16T17:54:05.493Z,22.40
2023-04-16T17:56:33.276Z,22.40
2023-04-16T17:59:01.185Z,22.40
2023-04-16T18:01:29.570Z,22.40
2023-04-16T18:03:57.758Z,22.40
2023-04-16T18:06:25.855Z,22.40
2023-04-16T18:08:53.723Z,22.40
2023-04-16T18:11:21.659Z,22.50
2023-04-16T18:13:49.611Z,22.50
2023-04-16T18:16:18.032Z,22.50
2023-04-16T18:18:46.380Z,22.40
2023-04-16T18:21:14.345Z,22.40
2023-04-16T18:23:42.451Z,22.40
2023-04-16T18:26:11.168Z,22.40
2023-04-16T18:28:39.536Z,22.30
2023-04-16T18:31:07.511Z,22.30
2023-04-16T18:33:53.982Z,22.30
2023-04-16T18:36:26.864Z,22.30
2023-04-16T18:39:00.887Z,22.30
2023-04-16T18:41:43.056Z,22.30
2023-04-16T18:44:11.023Z,22.20
2023-04-16T18:46:38.967Z,22.10
2023-04-16T18:49:06.925Z,22.10
2023-04-16T18:51:34.877Z,22.10
2023-04-16T18:54:02.962Z,22.00
2023-04-16T18:56:30.875Z,22.20
2023-04-16T18:58:58.807Z,22.40
2023-04-16T19:01:26.821Z,22.60
2023-04-16T19:03:54.829Z,22.80
2023-04-16T19:06:22.797Z,22.70
2023-04-16T19:08:50.792Z,22.50
2023-04-16T19:11:18.723Z,22.30
2023-04-16T19:13:46.920Z,22.50
2023-04-16T19:16:14.809Z,22.70
2023-04-16T19:18:42.920Z,22.90
2023-04-16T19:21:11.068Z,23.00
2023-04-16T19:23:39.063Z,22.80
2023-04-16T19:26:07.028Z,22.60
2023-04-16T19:28:34.968Z,22.50
2023-04-16T19:31:02.936Z,22.40
2023-04-16T19:33:30.899Z,22.60
2023-04-16T19:35:58.801Z,22.80
2023-04-16T19:38:26.782Z,23.00
2023-04-16T19:40:54.680Z,22.80
2023-04-16T19:43:22.659Z,22.70
2023-04-16T19:45:50.712Z,22.60
2023-04-16T19:48:18.831Z,22.60
2023-04-16T19:50:46.790Z,22.60
2023-04-16T19:53:15.121Z,22.60
2023-04-16T19:55:42.987Z,22.60
2023-04-16T19:58:10.962Z,22.60
2023-04-16T20:00:39.587Z,22.60
2023-04-16T20:03:07.567Z,22.50
2023-04-16T20:05:35.456Z,22.50
2023-04-16T20:08:03.308Z,22.50
2023-04-16T20:10:31.543Z,22.50
2023-04-16T20:12:59.772Z,22.50
2023-04-16T20:15:27.476Z,22.50
2023-04-16T20:17:55.447Z,22.50
2023-04-16T20:20:23.295Z,22.50
2023-04-16T20:22:51.408Z,22.50
2023-04-16T20:25:19.333Z,22.50
2023-04-16T20:27:47.426Z,22.40
2023-04-16T20:30:15.388Z,22.40
2023-04-16T20:32:43.499Z,22.40
2023-04-16T20:35:11.704Z,22.40
2023-04-16T20:37:39.677Z,22.40
2023-04-16T20:40:08.452Z,22.40
2023-04-16T20:42:36.458Z,22.30
2023-04-16T20:45:04.545Z,22.30
2023-04-16T20:47:32.409Z,22.30
2023-04-16T20:50:00.295Z,22.20
2023-04-16T20:52:28.266Z,22.20
2023-04-16T20:54:56.135Z,22.40
2023-04-16T20:57:24.236Z,22.60
2023-04-16T20:59:51.976Z,22.70
2023-04-16T21:02:20.066Z,22.90
2023-04-16T21:04:48.229Z,22.70
2023-04-16T21:07:16.263Z,22.40
2023-04-16T21:09:44.166Z,22.40
2023-04-16T21:12:12.028Z,22.70
2023-04-16T21:14:39.960Z,22.80
2023-04-16T21:17:07.907Z,23.00
2023-04-16T21:19:35.762Z,22.70
2023-04-16T21:22:03.782Z,22.50
2023-04-16T21:24:32.260Z,22.50
2023-04-16T21:27:00.213Z,22.70
2023-04-16T21:29:28.042Z,23.00
2023-04-16T21:31:56.263Z,23.00
2023-04-16T21:34:24.203Z,22.80
2023-04-16T21:36:52.202Z,22.60
2023-04-16T21:39:20.046Z,22.50
2023-04-16T21:41:48.132Z,22.50
2023-04-16T21:44:16.085Z,22.60
2023-04-16T21:46:43.990Z,22.50
2023-04-16T21:49:12.054Z,22.50
2023-04-16T21:51:40.740Z,22.50
2023-04-16T21:54:08.797Z,22.50
2023-04-16T21:56:36.737Z,22.40
2023-04-16T21:59:04.463Z,22.40
2023-04-16T22:01:32.613Z,22.40
2023-04-16T22:04:09.666Z,22.40
2023-04-16T22:06:37.711Z,22.40
2023-04-16T22:09:05.545Z,22.40
2023-04-16T22:11:33.511Z,22.40
2023-04-16T22:14:01.311Z,22.40
2023-04-16T22:16:29.356Z,22.40
2023-04-16T22:18:57.340Z,22.40
2023-04-16T22:21:25.360Z,22.40
2023-04-16T22:23:53.502Z,22.40
2023-04-16T22:26:21.426Z,22.40
2023-04-16T22:28:49.473Z,22.40
2023-04-16T22:31:17.463Z,22.40
2023-04-16T22:33:45.391Z,22.40
2023-04-16T22:36:13.278Z,22.30
2023-04-16T22:38:41.139Z,22.30
2023-04-16T22:41:09.150Z,22.30
2023-04-16T22:43:36.883Z,22.30
2023-04-16T22:46:05.211Z,22.30
2023-04-16T22:48:33.702Z,22.30
2023-04-16T22:51:01.768Z,22.30
2023-04-16T22:53:29.555Z,22.20
2023-04-16T22:55:57.703Z,22.20
2023-04-16T22:58:25.668Z,22.20
2023-04-16T23:00:53.711Z,22.20
2023-04-16T23:03:21.746Z,22.20
2023-04-16T23:05:49.735Z,22.20
2023-04-16T23:08:17.723Z,22.20
2023-04-16T23:10:45.724Z,22.10
2023-04-16T23:13:13.989Z,22.10
2023-04-16T23:15:42.054Z,22.10
2023-04-16T23:21:03.540Z,22.20
2023-04-16T23:23:31.966Z,22.50
2023-04-16T23:26:00.037Z,22.60
2023-04-16T23:28:28.437Z,22.80
2023-04-16T23:30:56.830Z,22.70
2023-04-16T23:33:25.200Z,22.60
2023-04-16T23:35:53.665Z,22.40
2023-04-16T23:38:21.922Z,22.30
2023-04-16T23:40:50.039Z,22.30
2023-04-16T23:43:18.425Z,22.40
2023-04-16T23:45:46.682Z,22.60
2023-04-16T23:48:16.276Z,22.90
2023-04-16T23:50:44.687Z,22.90
2023-04-16T23:53:12.972Z,22.70
2023-04-16T23:55:41.088Z,22.50
2023-04-16T23:58:09.586Z,22.40
